createdAt,value
2018-04-07T00:01:19.467Z,64.30
2018-04-07T00:03:46.952Z,64.60
2018-04-07T00:06:14.478Z,64.70
2018-04-07T00:08:42.781Z,64.80
2018-04-07T00:11:11.067Z,65.10
2018-04-07T00:13:38.594Z,65.00
2018-04-07T00:16:06.896Z,65.20
2018-04-07T00:18:34.398Z,65.20
2018-04-07T00:21:01.916Z,65.20
2018-04-07T00:23:29.413Z,64.80
2018-04-07T00:25:56.934Z,65.10
2018-04-07T00:28:25.190Z,65.50
2018-04-07T00:30:52.680Z,65.40
2018-04-07T00:33:20.966Z,65.60
2018-04-07T00:35:48.453Z,65.30
2018-04-07T00:38:16.728Z,65.40
2018-04-07T00:40:45.011Z,65.50
2018-04-07T00:43:12.704Z,65.30
2018-04-07T00:45:40.961Z,65.50
2018-04-07T00:48:10.178Z,65.50
2018-04-07T00:50:37.767Z,65.80
2018-04-07T00:53:06.046Z,66.20
2018-04-07T00:55:34.442Z,66.40
2018-04-07T00:58:02.019Z,66.20
2018-04-07T01:00:30.273Z,66.70
2018-04-07T01:02:57.789Z,66.60
2018-04-07T01:05:26.289Z,67.10
2018-04-07T01:07:54.557Z,67.20
2018-04-07T01:10:22.038Z,67.20
2018-04-07T01:12:49.560Z,67.30
2018-04-07T01:15:17.059Z,68.30
2018-04-07T01:17:44.593Z,67.70
2018-04-07T01:20:12.114Z,67.60
2018-04-07T01:22:39.617Z,67.70
2018-04-07T01:25:07.118Z,67.90
2018-04-07T01:27:34.654Z,67.90
2018-04-07T01:30:02.923Z,67.90
2018-04-07T01:32:30.470Z,67.90
2018-04-07T01:34:58.427Z,68.20
2018-04-07T01:37:25.959Z,68.70
2018-04-07T01:39:54.223Z,68.60
2018-04-07T01:42:21.721Z,68.60
2018-04-07T01:44:50.002Z,68.90
2018-04-07T01:47:18.252Z,68.20
2018-04-07T01:49:45.793Z,68.80
2018-04-07T01:52:13.295Z,69.00
2018-04-07T01:54:40.810Z,69.00
2018-04-07T01:57:09.066Z,69.40
2018-04-07T01:59:36.592Z,69.30
2018-04-07T02:02:04.084Z,69.20
2018-04-07T02:04:31.612Z,69.30
2018-04-07T02:06:59.870Z,69.70
2018-04-07T02:09:27.394Z,69.70
2018-04-07T02:11:54.902Z,69.90
2018-04-07T02:14:22.426Z,69.70
2018-04-07T02:16:49.917Z,69.80
2018-04-07T02:19:17.439Z,70.00
2018-04-07T02:21:44.945Z,70.10
2018-04-07T02:24:12.456Z,70.10
2018-04-07T02:26:39.947Z,70.00
2018-04-07T02:29:07.514Z,69.90
2018-04-07T02:31:35.009Z,70.00
2018-04-07T02:34:03.304Z,70.10
2018-04-07T02:36:31.578Z,70.10
2018-04-07T02:38:59.112Z,70.10
2018-04-07T02:41:26.632Z,70.10
2018-04-07T02:43:54.938Z,70.50
2018-04-07T02:46:22.454Z,70.50
2018-04-07T02:48:49.965Z,70.60
2018-04-07T02:51:18.220Z,70.70
2018-04-07T02:53:45.737Z,70.60
2018-04-07T02:56:13.242Z,70.40
2018-04-07T02:58:40.763Z,70.50
2018-04-07T03:01:09.041Z,70.90
2018-04-07T03:03:36.534Z,70.90
2018-04-07T03:06:04.828Z,71.20
2018-04-07T03:08:32.331Z,71.10
2018-04-07T03:10:59.840Z,71.40
2018-04-07T03:13:27.332Z,71.70
2018-04-07T03:15:55.601Z,71.70
2018-04-07T03:18:23.108Z,71.70
2018-04-07T03:20:50.639Z,71.80
2018-04-07T03:23:18.144Z,71.60
2018-04-07T03:25:45.671Z,71.90
2018-04-07T03:28:13.356Z,72.00
2018-04-07T03:30:40.923Z,72.10
2018-04-07T03:33:08.430Z,72.10
2018-04-07T03:35:35.945Z,72.00
2018-04-07T03:38:03.454Z,72.50
2018-04-07T03:40:31.728Z,73.40
2018-04-07T03:42:59.233Z,73.00
2018-04-07T03:45:27.560Z,73.40
2018-04-07T03:47:55.040Z,73.30
2018-04-07T03:50:22.556Z,73.50
2018-04-07T03:52:50.846Z,73.40
2018-04-07T03:55:18.348Z,73.30
2018-04-07T03:57:45.856Z,73.40
2018-04-07T04:00:13.351Z,73.60
2018-04-07T04:02:41.653Z,73.90
2018-04-07T04:05:09.918Z,74.00
2018-04-07T04:07:37.441Z,74.00
2018-04-07T04:10:04.950Z,74.00
2018-04-07T04:12:32.476Z,74.40
2018-04-07T04:15:00.004Z,74.50
2018-04-07T04:17:27.532Z,74.70
2018-04-07T04:19:55.020Z,74.90
2018-04-07T04:22:22.537Z,75.10
2018-04-07T04:24:50.804Z,75.30
2018-04-07T04:27:18.326Z,75.30
2018-04-07T04:29:45.821Z,75.30
2018-04-07T04:32:13.328Z,75.30
2018-04-07T04:34:40.830Z,75.40
2018-04-07T04:37:08.354Z,75.50
2018-04-07T04:39:35.869Z,75.90
2018-04-07T04:42:03.421Z,75.90
2018-04-07T04:44:31.689Z,76.00
2018-04-07T04:46:59.224Z,76.00
2018-04-07T04:49:26.712Z,76.40
2018-04-07T04:51:54.234Z,76.50
2018-04-07T04:54:21.732Z,76.80
2018-04-07T04:56:49.268Z,76.90
2018-04-07T04:59:17.530Z,76.90
2018-04-07T05:01:45.063Z,76.90
2018-04-07T05:04:13.095Z,76.70
2018-04-07T05:06:40.579Z,76.70
2018-04-07T05:09:08.120Z,76.60
2018-04-07T05:11:35.613Z,75.90
2018-04-07T05:14:03.115Z,74.90
2018-04-07T05:16:30.611Z,74.30
2018-04-07T05:18:58.157Z,73.40
2018-04-07T05:21:25.719Z,72.70
2018-04-07T05:23:53.344Z,72.00
2018-04-07T05:26:20.848Z,71.70
2018-04-07T05:28:49.120Z,71.40
2018-04-07T05:31:16.847Z,70.90
2018-04-07T05:33:44.393Z,71.00
2018-04-07T05:36:12.664Z,71.60
2018-04-07T05:38:41.087Z,72.20
2018-04-07T05:41:08.540Z,72.20
2018-04-07T05:43:36.827Z,72.70
2018-04-07T05:46:04.342Z,72.50
2018-04-07T05:48:31.857Z,72.60
2018-04-07T05:50:59.357Z,72.60
2018-04-07T05:53:26.943Z,72.50
2018-04-07T05:55:54.462Z,72.10
2018-04-07T05:58:22.922Z,71.70
2018-04-07T06:00:50.428Z,71.60
2018-04-07T06:03:17.936Z,71.40
2018-04-07T06:05:46.224Z,71.40
2018-04-07T06:08:14.515Z,71.40
2018-04-07T06:10:42.021Z,71.40
2018-04-07T06:13:09.524Z,71.30
2018-04-07T06:15:37.051Z,71.10
2018-04-07T06:18:04.575Z,70.90
2018-04-07T06:20:32.083Z,71.10
2018-04-07T06:22:59.578Z,71.00
2018-04-07T06:25:27.082Z,70.80
2018-04-07T06:27:54.576Z,70.70
2018-04-07T06:30:22.856Z,70.20
2018-04-07T06:32:51.124Z,70.00
2018-04-07T06:35:19.421Z,69.70
2018-04-07T06:37:46.934Z,69.70
2018-04-07T06:40:14.484Z,69.60
2018-04-07T06:42:42.744Z,69.20
2018-04-07T06:45:10.266Z,69.20
2018-04-07T06:47:37.767Z,68.70
2018-04-07T06:50:05.272Z,68.60
2018-04-07T06:52:32.804Z,68.20
2018-04-07T06:55:00.315Z,68.20
2018-04-07T06:57:28.641Z,67.50
2018-04-07T06:59:56.165Z,67.50
2018-04-07T07:02:23.662Z,67.30
2018-04-07T07:04:51.938Z,66.50
2018-04-07T07:07:19.442Z,66.50
2018-04-07T07:09:46.984Z,66.00
2018-04-07T07:12:14.480Z,65.30
2018-04-07T07:14:42.002Z,65.00
2018-04-07T07:17:09.502Z,64.90
2018-04-07T07:19:37.818Z,65.20
2018-04-07T07:22:05.324Z,65.20
2018-04-07T07:24:32.842Z,65.00
2018-04-07T07:27:01.094Z,64.80
2018-04-07T07:29:28.708Z,64.70
2018-04-07T07:31:56.231Z,64.80
2018-04-07T07:34:23.760Z,64.50
2018-04-07T07:36:51.320Z,64.40
2018-04-07T07:39:18.781Z,64.40
2018-04-07T07:41:47.721Z,64.10
2018-04-07T07:44:15.316Z,64.10
2018-04-07T07:46:42.919Z,64.10
2018-04-07T07:49:10.381Z,63.80
2018-04-07T07:51:37.925Z,63.60
2018-04-07T07:54:06.193Z,62.80
2018-04-07T07:56:33.709Z,62.90
2018-04-07T07:59:01.199Z,62.80
2018-04-07T08:01:28.726Z,62.60
2018-04-07T08:03:56.230Z,62.20
2018-04-07T08:06:23.795Z,61.80
2018-04-07T08:08:51.290Z,61.90
2018-04-07T08:11:20.459Z,61.50
2018-04-07T08:13:47.964Z,61.50
2018-04-07T08:16:16.269Z,60.90
2018-04-07T08:18:44.544Z,60.40
2018-04-07T08:21:12.833Z,60.30
2018-04-07T08:23:41.094Z,60.20
2018-04-07T08:26:08.684Z,60.00
2018-04-07T08:28:36.148Z,60.00
2018-04-07T08:31:03.666Z,60.10
2018-04-07T08:33:31.179Z,59.80
2018-04-07T08:35:59.491Z,59.50
2018-04-07T08:38:26.984Z,59.50
2018-04-07T08:40:55.274Z,58.70
2018-04-07T08:43:23.537Z,58.40
2018-04-07T08:45:51.050Z,58.40
2018-04-07T08:48:18.558Z,58.20
2018-04-07T08:50:46.932Z,57.60
2018-04-07T08:53:14.612Z,57.40
2018-04-07T08:55:42.338Z,57.00
2018-04-07T08:58:10.607Z,56.20
2018-04-07T09:00:38.143Z,56.20
2018-04-07T09:03:06.643Z,56.20
2018-04-07T09:05:34.153Z,56.20
2018-04-07T09:08:01.693Z,56.10
2018-04-07T09:10:29.219Z,55.80
2018-04-07T09:12:56.709Z,55.20
2018-04-07T09:15:24.209Z,54.50
2018-04-07T09:17:51.762Z,54.60
2018-04-07T09:20:20.052Z,53.90
2018-04-07T09:22:47.575Z,54.00
2018-04-07T09:25:15.227Z,54.10
2018-04-07T09:27:42.807Z,54.30
2018-04-07T09:30:10.766Z,54.00
2018-04-07T09:32:38.408Z,53.80
2018-04-07T09:35:05.929Z,52.70
2018-04-07T09:37:33.483Z,53.20
2018-04-07T09:40:01.020Z,52.30
2018-04-07T09:42:28.553Z,52.60
2018-04-07T09:44:56.071Z,52.10
2018-04-07T09:47:23.638Z,51.60
2018-04-07T09:49:51.180Z,52.40
2018-04-07T09:52:19.544Z,51.80
2018-04-07T09:54:47.097Z,51.80
2018-04-07T09:57:18.943Z,50.60
2018-04-07T09:59:46.866Z,50.90
2018-04-07T10:02:20.263Z,51.00
2018-04-07T10:04:47.784Z,51.60
2018-04-07T10:07:16.105Z,50.80
2018-04-07T10:09:43.641Z,50.70
2018-04-07T10:12:11.179Z,50.80
2018-04-07T10:14:38.770Z,50.70
2018-04-07T10:17:06.311Z,50.80
2018-04-07T10:19:33.820Z,51.10
2018-04-07T10:22:01.374Z,50.30
2018-04-07T10:24:28.916Z,51.20
2018-04-07T10:26:56.454Z,51.30
2018-04-07T10:29:24.735Z,51.60
2018-04-07T10:31:52.289Z,51.50
2018-04-07T10:34:19.834Z,50.80
2018-04-07T10:36:47.355Z,50.60
2018-04-07T10:39:15.643Z,50.60
2018-04-07T10:41:43.967Z,50.50
2018-04-07T10:44:11.501Z,50.50
2018-04-07T10:46:39.082Z,49.80
2018-04-07T10:49:07.401Z,50.10
2018-04-07T10:51:34.944Z,50.10
2018-04-07T10:54:03.279Z,49.80
2018-04-07T10:56:30.784Z,49.70
2018-04-07T10:58:58.339Z,49.10
2018-04-07T11:01:25.851Z,49.30
2018-04-07T11:03:54.476Z,48.80
2018-04-07T11:06:21.991Z,48.70
2018-04-07T11:08:49.528Z,48.60
2018-04-07T11:11:17.039Z,48.80
2018-04-07T11:13:44.575Z,48.70
2018-04-07T11:16:12.128Z,48.50
2018-04-07T11:18:39.686Z,48.10
2018-04-07T11:21:07.976Z,47.70
2018-04-07T11:23:35.548Z,47.70
2018-04-07T11:26:03.819Z,47.40
2018-04-07T11:28:31.376Z,47.30
2018-04-07T11:30:58.997Z,46.90
2018-04-07T11:33:26.523Z,47.10
2018-04-07T11:35:54.031Z,47.00
2018-04-07T11:38:21.559Z,46.70
2018-04-07T11:40:49.073Z,46.10
2018-04-07T11:43:16.611Z,46.00
2018-04-07T11:45:44.117Z,45.90
2018-04-07T11:48:11.669Z,45.60
2018-04-07T11:50:39.195Z,45.20
2018-04-07T11:53:06.746Z,45.10
2018-04-07T11:55:34.277Z,45.50
2018-04-07T11:58:01.807Z,45.40
2018-04-07T12:00:29.336Z,44.90
2018-04-07T12:02:56.895Z,44.80
2018-04-07T12:05:25.212Z,43.70
2018-04-07T12:07:52.753Z,43.70
2018-04-07T12:10:20.324Z,44.20
2018-04-07T12:12:48.671Z,44.00
2018-04-07T12:15:16.377Z,44.00
2018-04-07T12:17:44.678Z,43.30
2018-04-07T12:20:12.202Z,43.30
2018-04-07T12:22:39.727Z,42.90
2018-04-07T12:25:08.048Z,42.20
2018-04-07T12:27:36.351Z,42.40
2018-04-07T12:30:03.887Z,42.30
2018-04-07T12:32:32.163Z,42.30
2018-04-07T12:34:59.781Z,42.20
2018-04-07T12:37:27.347Z,42.40
2018-04-07T12:39:54.874Z,42.20
2018-04-07T12:42:22.409Z,41.70
2018-04-07T12:44:49.935Z,42.30
2018-04-07T12:47:18.208Z,41.20
2018-04-07T12:49:45.792Z,41.20
2018-04-07T12:52:14.073Z,40.60
2018-04-07T12:54:41.633Z,40.10
2018-04-07T12:57:09.147Z,39.80
2018-04-07T12:59:37.162Z,39.90
2018-04-07T13:02:05.456Z,38.50
2018-04-07T13:04:33.759Z,38.60
2018-04-07T13:07:01.335Z,38.70
2018-04-07T13:09:28.909Z,39.10
2018-04-07T13:11:56.423Z,39.20
2018-04-07T13:14:23.964Z,39.40
2018-04-07T13:16:51.471Z,38.90
2018-04-07T13:19:19.031Z,38.70
2018-04-07T13:21:46.591Z,37.60
2018-04-07T13:24:14.143Z,38.20
2018-04-07T13:26:41.655Z,38.40
2018-04-07T13:29:09.209Z,38.30
2018-04-07T13:31:37.574Z,38.50
2018-04-07T13:34:05.152Z,38.40
2018-04-07T13:36:32.656Z,38.50
2018-04-07T13:39:00.941Z,38.50
2018-04-07T13:41:28.491Z,38.50
2018-04-07T13:43:56.005Z,37.50
2018-04-07T13:46:23.557Z,37.30
2018-04-07T13:48:51.079Z,37.30
2018-04-07T13:51:18.641Z,36.50
2018-04-07T13:53:46.174Z,37.20
2018-04-07T13:56:14.471Z,36.80
2018-04-07T13:58:42.038Z,36.70
2018-04-07T14:01:10.353Z,37.10
2018-04-07T14:03:37.871Z,36.90
2018-04-07T14:06:05.407Z,36.70
2018-04-07T14:08:32.922Z,36.90
2018-04-07T14:11:00.544Z,37.70
2018-04-07T14:13:28.052Z,38.40
2018-04-07T14:15:55.586Z,39.10
2018-04-07T14:18:23.107Z,39.40
2018-04-07T14:20:59.430Z,39.60
2018-04-07T14:23:28.588Z,40.80
2018-04-07T14:25:56.171Z,40.70
2018-04-07T14:28:24.501Z,40.50
2018-04-07T14:30:52.049Z,40.10
2018-04-07T14:33:20.355Z,40.90
2018-04-07T14:35:47.914Z,40.80
2018-04-07T14:38:15.462Z,40.30
2018-04-07T14:40:43.017Z,41.30
2018-04-07T14:43:10.527Z,42.50
2018-04-07T14:45:38.834Z,42.20
2018-04-07T14:48:06.345Z,42.10
2018-04-07T14:50:34.830Z,40.80
2018-04-07T14:53:02.356Z,40.40
2018-04-07T14:55:30.680Z,39.70
2018-04-07T14:57:58.194Z,39.70
2018-04-07T15:00:25.742Z,39.80
2018-04-07T15:02:53.291Z,39.90
2018-04-07T15:05:20.830Z,40.20
2018-04-07T15:07:49.134Z,39.90
2018-04-07T15:10:16.663Z,39.90
2018-04-07T15:12:44.194Z,40.60
2018-04-07T15:15:11.725Z,40.80
2018-04-07T15:17:40.031Z,40.20
2018-04-07T15:20:08.330Z,40.10
2018-04-07T15:22:36.647Z,40.80
2018-04-07T15:25:04.155Z,40.80
2018-04-07T15:27:31.698Z,40.00
2018-04-07T15:29:59.225Z,41.40
2018-04-07T15:32:26.815Z,41.70
2018-04-07T15:34:54.369Z,42.10
2018-04-07T15:37:22.679Z,41.40
2018-04-07T15:39:50.230Z,41.30
2018-04-07T15:42:17.768Z,40.90
2018-04-07T15:44:45.292Z,41.00
2018-04-07T15:47:12.833Z,41.60
2018-04-07T15:49:41.118Z,42.40
2018-04-07T15:52:09.423Z,42.90
2018-04-07T15:54:37.702Z,42.40
2018-04-07T15:57:06.021Z,42.30
2018-04-07T15:59:33.566Z,42.20
2018-04-07T16:02:01.959Z,42.70
2018-04-07T16:04:29.442Z,42.70
2018-04-07T16:06:57.739Z,42.60
2018-04-07T16:09:25.328Z,42.60
2018-04-07T16:11:52.844Z,42.90
2018-04-07T16:14:20.378Z,42.80
2018-04-07T16:16:47.899Z,43.40
2018-04-07T16:19:16.209Z,43.50
2018-04-07T16:21:43.734Z,43.40
2018-04-07T16:24:11.301Z,43.10
2018-04-07T16:26:38.819Z,42.90
2018-04-07T16:29:06.434Z,42.80
2018-04-07T16:31:33.959Z,43.70
2018-04-07T16:34:02.272Z,43.70
2018-04-07T16:36:29.782Z,43.60
2018-04-07T16:38:57.338Z,43.70
2018-04-07T16:41:24.862Z,43.50
2018-04-07T16:43:53.175Z,43.50
2018-04-07T16:46:20.690Z,43.50
2018-04-07T16:48:48.251Z,43.40
2018-04-07T16:51:16.565Z,43.40
2018-04-07T16:53:44.874Z,43.30
2018-04-07T16:56:13.180Z,43.30
2018-04-07T16:58:41.454Z,43.30
2018-04-07T17:01:09.783Z,43.30
2018-04-07T17:03:37.290Z,43.30
2018-04-07T17:06:04.822Z,43.20
2018-04-07T17:08:32.327Z,42.90
2018-04-07T17:10:59.864Z,43.10
2018-04-07T17:13:27.379Z,43.00
2018-04-07T17:15:54.919Z,43.00
2018-04-07T17:18:22.424Z,42.80
2018-04-07T17:20:49.964Z,42.90
2018-04-07T17:23:18.249Z,42.80
2018-04-07T17:25:45.797Z,42.90
2018-04-07T17:28:13.307Z,42.70
2018-04-07T17:30:40.866Z,42.70
2018-04-07T17:33:08.376Z,43.10
2018-04-07T17:35:35.917Z,41.50
2018-04-07T17:38:03.428Z,42.70
2018-04-07T17:40:30.976Z,41.70
2018-04-07T17:42:58.498Z,41.70
2018-04-07T17:45:26.058Z,41.70
2018-04-07T17:47:54.327Z,42.10
2018-04-07T17:50:21.876Z,42.10
2018-04-07T17:52:49.412Z,42.70
2018-04-07T17:55:16.939Z,42.70
2018-04-07T17:57:44.476Z,42.60
2018-04-07T18:00:11.981Z,43.30
2018-04-07T18:02:39.507Z,43.30
2018-04-07T18:05:07.039Z,43.70
2018-04-07T18:07:35.318Z,44.50
2018-04-07T18:10:02.870Z,44.50
2018-04-07T18:12:30.405Z,44.50
2018-04-07T18:14:57.930Z,45.10
2018-04-07T18:17:25.439Z,45.30
2018-04-07T18:19:52.981Z,45.80
2018-04-07T18:22:21.625Z,45.80
2018-04-07T18:24:49.181Z,45.80
2018-04-07T18:27:16.690Z,46.20
2018-04-07T18:29:44.190Z,46.30
2018-04-07T18:32:12.490Z,47.00
2018-04-07T18:34:40.775Z,47.10
2018-04-07T18:37:09.080Z,47.20
2018-04-07T18:39:36.597Z,47.10
2018-04-07T18:42:04.133Z,47.20
2018-04-07T18:44:31.668Z,47.40
2018-04-07T18:46:59.198Z,47.90
2018-04-07T18:49:26.751Z,48.50
2018-04-07T18:51:54.321Z,48.30
2018-04-07T18:54:21.835Z,48.30
2018-04-07T18:56:49.471Z,48.30
2018-04-07T18:59:16.975Z,49.00
2018-04-07T19:01:44.537Z,48.80
2018-04-07T19:04:12.034Z,49.00
2018-04-07T19:06:41.074Z,49.30
2018-04-07T19:09:09.378Z,49.50
2018-04-07T19:11:36.906Z,49.50
2018-04-07T19:14:04.418Z,49.60
2018-04-07T19:16:31.943Z,49.90
2018-04-07T19:18:59.449Z,50.30
2018-04-07T19:21:27.738Z,50.30
2018-04-07T19:23:56.006Z,50.50
2018-04-07T19:26:23.536Z,50.40
2018-04-07T19:28:51.072Z,50.30
2018-04-07T19:31:19.375Z,50.40
2018-04-07T19:33:46.893Z,50.40
2018-04-07T19:36:14.427Z,50.30
2018-04-07T19:38:41.947Z,50.80
2018-04-07T19:41:09.554Z,51.00
2018-04-07T19:43:37.040Z,50.40
2018-04-07T19:46:04.578Z,49.80
2018-04-07T19:48:32.078Z,49.00
2018-04-07T19:50:59.651Z,48.30
2018-04-07T19:53:27.164Z,47.20
2018-04-07T19:55:55.477Z,47.00
2018-04-07T19:58:23.010Z,47.00
2018-04-07T20:00:50.538Z,46.40
2018-04-07T20:03:18.823Z,46.00
2018-04-07T20:05:47.126Z,46.30
2018-04-07T20:08:15.426Z,46.30
2018-04-07T20:10:42.968Z,46.20
2018-04-07T20:13:11.306Z,46.20
2018-04-07T20:15:38.827Z,46.20
2018-04-07T20:18:06.369Z,46.50
2018-04-07T20:20:33.896Z,46.80
2018-04-07T20:23:01.429Z,46.80
2018-04-07T20:25:28.969Z,46.80
2018-04-07T20:27:56.495Z,46.80
2018-04-07T20:30:24.772Z,46.80
2018-04-07T20:32:52.301Z,46.80
2018-04-07T20:35:19.815Z,48.00
2018-04-07T20:37:47.348Z,47.40
2018-04-07T20:40:14.903Z,47.60
2018-04-07T20:42:43.170Z,47.60
2018-04-07T20:45:11.431Z,48.00
2018-04-07T20:47:38.988Z,47.90
2018-04-07T20:50:06.512Z,48.40
2018-04-07T20:52:34.051Z,48.70
2018-04-07T20:55:01.559Z,48.90
2018-04-07T20:57:29.095Z,49.50
2018-04-07T20:59:56.613Z,49.20
2018-04-07T21:02:24.175Z,48.60
2018-04-07T21:04:51.690Z,49.60
2018-04-07T21:07:20.011Z,49.60
2018-04-07T21:09:48.285Z,49.60
2018-04-07T21:12:15.862Z,49.60
2018-04-07T21:14:43.378Z,49.70
2018-04-07T21:17:10.912Z,49.90
2018-04-07T21:19:38.453Z,50.10
2018-04-07T21:22:06.242Z,50.50
2018-04-07T21:24:33.755Z,50.60
2018-04-07T21:27:01.301Z,50.70
2018-04-07T21:29:29.584Z,50.90
2018-04-07T21:31:57.111Z,51.00
2018-04-07T21:34:24.628Z,51.00
2018-04-07T21:36:52.170Z,51.20
2018-04-07T21:39:19.710Z,51.70
2018-04-07T21:41:47.251Z,52.00
2018-04-07T21:44:15.523Z,51.70
2018-04-07T21:46:43.040Z,51.70
2018-04-07T21:49:10.574Z,51.90
2018-04-07T21:51:38.086Z,52.00
2018-04-07T21:54:05.653Z,52.20
2018-04-07T21:56:33.181Z,52.80
2018-04-07T21:59:00.716Z,53.60
2018-04-07T22:01:28.248Z,53.50
2018-04-07T22:03:56.538Z,53.50
2018-04-07T22:06:24.849Z,53.50
2018-04-07T22:08:53.326Z,53.40
2018-04-07T22:11:20.902Z,53.40
2018-04-07T22:13:50.113Z,53.40
2018-04-07T22:16:17.661Z,53.40
2018-04-07T22:18:45.171Z,54.40
2018-04-07T22:21:12.718Z,54.50
2018-04-07T22:23:41.009Z,54.50
2018-04-07T22:26:09.382Z,54.60
2018-04-07T22:28:36.978Z,54.60
2018-04-07T22:31:05.285Z,55.10
2018-04-07T22:33:33.058Z,55.10
2018-04-07T22:36:01.799Z,55.10
2018-04-07T22:38:29.434Z,55.10
2018-04-07T22:40:56.964Z,55.40
2018-04-07T22:43:24.483Z,55.70
2018-04-07T22:45:52.006Z,55.80
2018-04-07T22:48:19.531Z,56.10
2018-04-07T22:50:47.079Z,55.90
2018-04-07T22:53:15.368Z,56.60
2018-04-07T22:55:43.673Z,56.90
2018-04-07T22:58:11.233Z,56.90
2018-04-07T23:00:38.840Z,57.40
2018-04-07T23:03:06.354Z,57.60
2018-04-07T23:05:33.925Z,57.70
2018-04-07T23:08:01.439Z,57.90
2018-04-07T23:10:28.996Z,58.60
2018-04-07T23:12:56.517Z,58.60
2018-04-07T23:15:24.096Z,59.10
2018-04-07T23:17:51.607Z,59.70
2018-04-07T23:20:19.154Z,59.80
2018-04-07T23:22:46.673Z,59.70
2018-04-07T23:25:14.178Z,59.70
2018-04-07T23:27:41.704Z,59.70
2018-04-07T23:30:09.236Z,59.80
2018-04-07T23:32:37.585Z,60.20
2018-04-07T23:35:05.093Z,60.10
2018-04-07T23:37:32.645Z,59.80
2018-04-07T23:40:00.157Z,59.80
2018-04-07T23:42:28.454Z,60.50
2018-04-07T23:44:56.731Z,60.70
2018-04-07T23:47:25.042Z,61.00
2018-04-07T23:49:52.573Z,60.90
2018-04-07T23:52:21.630Z,61.10
2018-04-07T23:54:49.152Z,61.10
2018-04-07T23:57:16.678Z,61.00
2018-04-07T23:59:44.178Z,61.00
